createdAt,value
2023-12-09T00:01:11.604Z,18.29
2023-12-09T00:03:38.449Z,18.07
2023-12-09T00:06:05.142Z,17.88
2023-12-09T00:08:31.676Z,18.11
2023-12-09T00:10:58.159Z,18.30
2023-12-09T00:13:24.665Z,18.09
2023-12-09T00:15:51.110Z,17.13
2023-12-09T00:18:17.803Z,18.12
2023-12-09T00:20:44.417Z,17.42
2023-12-09T00:23:10.899Z,17.07
2023-12-09T00:25:37.388Z,17.14
2023-12-09T00:28:03.857Z,17.36
2023-12-09T00:30:30.395Z,17.20
2023-12-09T00:32:56.997Z,16.55
2023-12-09T00:35:23.644Z,16.89
2023-12-09T00:37:50.118Z,16.91
2023-12-09T00:40:16.612Z,16.45
2023-12-09T00:42:43.206Z,16.40
2023-12-09T00:45:09.741Z,16.34
2023-12-09T00:47:36.269Z,16.92
2023-12-09T00:50:02.759Z,16.27
2023-12-09T00:52:29.387Z,16.81
2023-12-09T00:54:56.090Z,16.58
2023-12-09T00:57:22.649Z,16.82
2023-12-09T00:59:49.361Z,17.19
2023-12-09T01:02:15.908Z,16.29
2023-12-09T01:04:42.406Z,16.20
2023-12-09T01:07:08.945Z,16.04
2023-12-09T01:09:35.459Z,15.30
2023-12-09T01:12:02.002Z,14.78
2023-12-09T01:14:28.456Z,15.41
2023-12-09T01:16:54.987Z,14.58
2023-12-09T01:19:21.495Z,14.90
2023-12-09T01:21:47.982Z,15.83
2023-12-09T01:24:14.503Z,16.35
2023-12-09T01:26:41.094Z,16.25
2023-12-09T01:29:07.560Z,16.43
2023-12-09T01:31:34.146Z,16.34
2023-12-09T01:34:00.858Z,16.56
2023-12-09T01:36:29.457Z,16.80
2023-12-09T01:38:56.038Z,16.86
2023-12-09T01:41:22.641Z,16.98
2023-12-09T01:43:49.108Z,16.77
2023-12-09T01:46:15.601Z,16.42
2023-12-09T01:48:42.722Z,16.16
2023-12-09T01:51:09.425Z,16.11
2023-12-09T01:53:35.970Z,16.90
2023-12-09T01:56:02.521Z,16.94
2023-12-09T01:58:28.984Z,16.78
2023-12-09T02:00:55.490Z,17.31
2023-12-09T02:03:22.001Z,17.07
2023-12-09T02:08:14.956Z,17.20
2023-12-09T02:10:41.423Z,16.52
2023-12-09T02:13:07.913Z,16.19
2023-12-09T02:15:34.427Z,16.27
2023-12-09T02:18:01.025Z,16.59
2023-12-09T02:20:27.600Z,16.57
2023-12-09T02:22:54.056Z,16.04
2023-12-09T02:25:20.528Z,16.18
2023-12-09T02:27:46.954Z,16.71
2023-12-09T02:30:13.446Z,16.39
2023-12-09T02:32:41.275Z,16.51
2023-12-09T02:35:07.754Z,16.11
2023-12-09T02:37:34.492Z,16.60
2023-12-09T02:40:01.004Z,16.34
2023-12-09T02:42:27.861Z,16.94
2023-12-09T02:44:54.558Z,16.47
2023-12-09T02:47:21.016Z,16.32
2023-12-09T02:49:47.522Z,16.78
2023-12-09T02:52:14.032Z,16.35
2023-12-09T02:54:40.579Z,16.58
2023-12-09T02:57:07.098Z,16.42
2023-12-09T02:59:33.601Z,15.88
2023-12-09T03:02:00.052Z,15.99
2023-12-09T03:04:26.606Z,15.52
2023-12-09T03:06:53.090Z,15.45
2023-12-09T03:09:19.601Z,16.01
2023-12-09T03:11:46.076Z,16.29
2023-12-09T03:14:12.606Z,16.18
2023-12-09T03:16:39.118Z,16.17
2023-12-09T03:19:05.714Z,16.73
2023-12-09T03:21:32.283Z,18.97
2023-12-09T03:23:58.809Z,16.47
2023-12-09T03:26:25.313Z,15.54
2023-12-09T03:28:51.835Z,16.40
2023-12-09T03:31:18.271Z,16.23
2023-12-09T03:33:44.859Z,16.81
2023-12-09T03:36:11.401Z,16.81
2023-12-09T03:38:37.903Z,17.32
2023-12-09T03:41:04.320Z,16.43
2023-12-09T03:43:30.875Z,16.52
2023-12-09T03:45:57.362Z,15.87
2023-12-09T03:48:23.954Z,15.73
2023-12-09T03:50:50.563Z,15.59
2023-12-09T03:53:17.018Z,15.26
2023-12-09T03:55:43.469Z,14.86
2023-12-09T03:58:09.972Z,15.22
2023-12-09T04:00:36.430Z,15.21
2023-12-09T04:03:02.997Z,15.19
2023-12-09T04:05:29.538Z,15.11
2023-12-09T04:07:56.040Z,14.61
2023-12-09T04:10:22.484Z,14.54
2023-12-09T04:12:49.149Z,14.81
2023-12-09T04:15:15.638Z,15.03
2023-12-09T04:17:42.247Z,14.92
2023-12-09T04:20:08.970Z,14.86
2023-12-09T04:22:35.688Z,15.67
2023-12-09T04:25:03.452Z,16.20
2023-12-09T04:27:29.994Z,15.79
2023-12-09T04:29:56.574Z,15.72
2023-12-09T04:32:23.098Z,15.94
2023-12-09T04:34:49.598Z,15.90
2023-12-09T04:37:16.052Z,15.62
2023-12-09T04:39:42.573Z,15.56
2023-12-09T04:42:09.155Z,14.97
2023-12-09T04:44:35.703Z,15.42
2023-12-09T04:47:03.888Z,15.51
2023-12-09T04:49:32.701Z,15.47
2023-12-09T04:51:59.168Z,15.74
2023-12-09T04:54:25.653Z,14.94
2023-12-09T04:56:52.222Z,15.41
2023-12-09T04:59:18.677Z,14.95
2023-12-09T05:01:45.119Z,15.94
2023-12-09T05:04:11.693Z,15.38
2023-12-09T05:06:38.269Z,15.53
2023-12-09T05:09:04.957Z,14.80
2023-12-09T05:11:31.551Z,15.46
2023-12-09T05:13:58.004Z,15.05
2023-12-09T05:16:31.686Z,14.94
2023-12-09T05:18:58.321Z,14.88
2023-12-09T05:21:35.077Z,15.09
2023-12-09T05:24:02.881Z,14.21
2023-12-09T05:26:29.355Z,15.29
2023-12-09T05:28:55.794Z,15.35
2023-12-09T05:31:22.247Z,14.78
2023-12-09T05:33:48.806Z,14.23
2023-12-09T05:36:15.401Z,14.81
2023-12-09T05:38:41.860Z,15.00
2023-12-09T05:41:08.357Z,14.52
2023-12-09T05:43:34.840Z,14.58
2023-12-09T05:46:03.787Z,15.25
2023-12-09T05:48:31.914Z,15.23
2023-12-09T05:50:58.590Z,15.29
2023-12-09T05:53:25.158Z,15.04
2023-12-09T05:55:51.635Z,14.82
2023-12-09T05:58:18.153Z,14.89
2023-12-09T06:00:44.662Z,14.84
2023-12-09T06:03:11.274Z,14.70
2023-12-09T06:05:37.781Z,15.59
2023-12-09T06:08:04.246Z,15.57
2023-12-09T06:10:30.716Z,15.34
2023-12-09T06:12:57.199Z,14.99
2023-12-09T06:15:23.685Z,17.09
2023-12-09T06:17:50.674Z,16.71
2023-12-09T06:20:17.270Z,16.25
2023-12-09T06:22:43.784Z,16.41
2023-12-09T06:25:10.266Z,16.83
2023-12-09T06:27:36.800Z,16.84
2023-12-09T06:30:03.304Z,15.68
2023-12-09T06:32:30.272Z,15.85
2023-12-09T06:34:56.869Z,16.04
2023-12-09T06:37:23.371Z,16.06
2023-12-09T06:39:49.938Z,15.87
2023-12-09T06:42:16.496Z,16.65
2023-12-09T06:44:43.012Z,16.08
2023-12-09T06:47:09.469Z,15.80
2023-12-09T06:49:35.989Z,15.04
2023-12-09T06:52:02.461Z,15.26
2023-12-09T06:54:28.967Z,14.34
2023-12-09T06:56:55.525Z,14.44
2023-12-09T06:59:22.018Z,14.32
2023-12-09T07:01:48.555Z,13.81
2023-12-09T07:04:15.163Z,14.21
2023-12-09T07:06:41.769Z,14.51
2023-12-09T07:09:08.311Z,14.05
2023-12-09T07:11:34.779Z,13.96
2023-12-09T07:14:01.233Z,13.84
2023-12-09T07:16:27.708Z,12.17
2023-12-09T07:18:54.281Z,12.17
2023-12-09T07:21:20.965Z,12.91
2023-12-09T07:23:47.644Z,11.49
2023-12-09T07:26:14.116Z,13.05
2023-12-09T07:28:40.727Z,12.84
2023-12-09T07:31:07.231Z,11.88
2023-12-09T07:33:33.984Z,12.01
2023-12-09T07:36:00.660Z,12.48
2023-12-09T07:38:27.164Z,12.24
2023-12-09T07:40:53.710Z,13.43
2023-12-09T07:43:20.185Z,12.15
2023-12-09T07:45:46.776Z,11.06
2023-12-09T07:48:13.675Z,11.02
2023-12-09T07:50:40.280Z,13.21
2023-12-09T07:53:06.823Z,11.69
2023-12-09T07:55:33.305Z,13.63
2023-12-09T07:57:59.815Z,12.30
2023-12-09T08:00:26.439Z,12.74
2023-12-09T08:02:53.047Z,12.56
2023-12-09T08:05:19.773Z,12.16
2023-12-09T08:07:46.451Z,11.89
2023-12-09T08:10:12.910Z,11.59
2023-12-09T08:12:39.443Z,11.41
2023-12-09T08:15:06.005Z,11.12
2023-12-09T08:17:32.502Z,11.03
2023-12-09T08:19:59.031Z,10.40
2023-12-09T08:22:25.646Z,11.52
2023-12-09T08:24:52.393Z,10.22
2023-12-09T08:27:18.909Z,11.15
2023-12-09T08:29:45.392Z,11.03
2023-12-09T08:32:11.869Z,10.84
2023-12-09T08:34:38.423Z,10.99
2023-12-09T08:37:04.939Z,11.04
2023-12-09T08:39:31.544Z,11.27
2023-12-09T08:41:58.072Z,11.07
2023-12-09T08:44:24.666Z,11.02
2023-12-09T08:46:51.225Z,11.38
2023-12-09T08:49:17.908Z,11.55
2023-12-09T08:51:44.546Z,12.43
2023-12-09T08:54:11.105Z,11.56
2023-12-09T08:56:37.650Z,10.82
2023-12-09T08:59:04.161Z,11.49
2023-12-09T09:01:30.652Z,11.18
2023-12-09T09:03:57.352Z,10.26
2023-12-09T09:06:24.019Z,10.30
2023-12-09T09:08:53.601Z,10.57
2023-12-09T09:11:20.352Z,9.46
2023-12-09T09:13:46.891Z,9.40
2023-12-09T09:16:13.404Z,9.55
2023-12-09T09:18:40.019Z,9.54
2023-12-09T09:21:06.614Z,9.54
2023-12-09T09:23:33.087Z,9.77
2023-12-09T09:25:59.534Z,8.91
2023-12-09T09:28:26.099Z,9.19
2023-12-09T09:30:52.752Z,9.14
2023-12-09T09:33:19.457Z,9.01
2023-12-09T09:35:46.053Z,8.72
2023-12-09T09:38:12.580Z,8.91
2023-12-09T09:40:39.064Z,9.33
2023-12-09T09:43:05.667Z,8.68
2023-12-09T09:45:32.964Z,8.48
2023-12-09T09:47:59.855Z,9.14
2023-12-09T09:50:26.479Z,9.10
2023-12-09T09:52:52.971Z,9.36
2023-12-09T09:55:19.439Z,9.03
2023-12-09T09:57:45.999Z,8.58
2023-12-09T10:00:12.823Z,9.29
2023-12-09T10:02:39.324Z,9.65
2023-12-09T10:05:05.993Z,9.88
2023-12-09T10:07:32.661Z,9.87
2023-12-09T10:09:59.276Z,8.67
2023-12-09T10:12:26.098Z,8.84
2023-12-09T10:14:53.352Z,8.88
2023-12-09T10:17:19.796Z,9.18
2023-12-09T10:19:46.370Z,8.55
2023-12-09T10:22:13.042Z,10.05
2023-12-09T10:24:45.818Z,9.39
2023-12-09T10:27:15.221Z,9.11
2023-12-09T10:29:44.110Z,8.77
2023-12-09T10:32:12.892Z,9.82
2023-12-09T10:34:41.246Z,10.26
2023-12-09T10:37:07.776Z,10.25
2023-12-09T10:39:34.474Z,10.47
2023-12-09T10:42:00.979Z,11.49
2023-12-09T10:44:27.458Z,11.90
2023-12-09T10:46:53.950Z,11.31
2023-12-09T10:49:20.823Z,11.16
2023-12-09T10:51:47.393Z,11.32
2023-12-09T10:54:13.918Z,11.20
2023-12-09T10:56:40.499Z,11.34
2023-12-09T10:59:07.131Z,11.53
2023-12-09T11:01:33.593Z,11.54
2023-12-09T11:04:00.303Z,10.90
2023-12-09T11:06:26.877Z,11.49
2023-12-09T11:08:53.429Z,11.08
2023-12-09T11:11:19.999Z,11.65
2023-12-09T11:13:46.591Z,10.56
2023-12-09T11:16:13.133Z,10.26
2023-12-09T11:18:39.850Z,11.51
2023-12-09T11:21:09.277Z,11.95
2023-12-09T11:23:35.930Z,10.75
2023-12-09T11:26:02.472Z,9.73
2023-12-09T11:28:29.296Z,10.58
2023-12-09T11:30:55.795Z,9.92
2023-12-09T11:33:22.394Z,9.62
2023-12-09T11:35:49.032Z,8.50
2023-12-09T11:38:15.637Z,9.13
2023-12-09T11:40:42.150Z,9.54
2023-12-09T11:43:08.671Z,9.13
2023-12-09T11:45:35.274Z,9.03
2023-12-09T11:48:01.992Z,8.33
2023-12-09T11:50:28.745Z,8.08
2023-12-09T11:52:57.222Z,8.54
2023-12-09T11:55:24.083Z,7.51
2023-12-09T11:57:50.770Z,7.45
2023-12-09T12:00:17.296Z,7.18
2023-12-09T12:02:43.988Z,7.87
2023-12-09T12:05:10.597Z,8.00
2023-12-09T12:07:37.186Z,8.12
2023-12-09T12:10:03.728Z,7.63
2023-12-09T12:12:30.508Z,8.04
2023-12-09T12:14:57.159Z,8.70
2023-12-09T12:17:23.665Z,8.04
2023-12-09T12:19:50.352Z,8.71
2023-12-09T12:22:18.115Z,7.85
2023-12-09T12:24:45.550Z,8.19
2023-12-09T12:27:12.143Z,8.52
2023-12-09T12:29:38.635Z,9.36
2023-12-09T12:32:05.151Z,8.60
2023-12-09T12:34:31.669Z,7.63
2023-12-09T12:36:58.160Z,7.37
2023-12-09T12:39:27.666Z,7.45
2023-12-09T12:41:54.723Z,7.56
2023-12-09T12:44:21.177Z,7.74
2023-12-09T12:46:47.682Z,7.65
2023-12-09T12:49:14.229Z,7.76
2023-12-09T12:51:40.773Z,7.50
2023-12-09T12:54:07.292Z,8.13
2023-12-09T12:56:33.898Z,8.09
2023-12-09T12:59:00.410Z,7.99
2023-12-09T13:01:27.086Z,7.45
2023-12-09T13:03:53.723Z,7.41
2023-12-09T13:06:20.249Z,9.49
2023-12-09T13:08:47.042Z,8.13
2023-12-09T13:11:13.571Z,7.73
2023-12-09T13:13:40.046Z,7.47
2023-12-09T13:16:06.633Z,6.65
2023-12-09T13:18:33.341Z,6.39
2023-12-09T13:20:59.941Z,6.66
2023-12-09T13:23:26.727Z,5.81
2023-12-09T13:25:53.282Z,5.60
2023-12-09T13:28:19.781Z,5.90
2023-12-09T13:30:46.360Z,5.95
2023-12-09T13:33:13.071Z,5.92
2023-12-09T13:35:39.676Z,5.64
2023-12-09T13:38:06.381Z,5.47
2023-12-09T13:40:33.089Z,5.43
2023-12-09T13:42:59.559Z,5.75
2023-12-09T13:45:26.047Z,5.35
2023-12-09T13:47:53.555Z,5.60
2023-12-09T13:50:20.378Z,5.51
2023-12-09T13:52:46.848Z,5.74
2023-12-09T13:55:13.564Z,5.46
2023-12-09T13:57:40.233Z,5.00
2023-12-09T14:00:06.963Z,4.68
2023-12-09T14:02:33.461Z,5.52
2023-12-09T14:05:00.002Z,5.75
2023-12-09T14:07:26.539Z,5.86
2023-12-09T14:09:55.776Z,5.77
2023-12-09T14:12:22.436Z,6.96
2023-12-09T14:14:48.935Z,5.13
2023-12-09T14:17:15.485Z,4.92
2023-12-09T14:19:42.182Z,4.61
2023-12-09T14:22:08.674Z,4.88
2023-12-09T14:24:35.293Z,4.49
2023-12-09T14:27:01.841Z,4.66
2023-12-09T14:29:28.347Z,4.49
2023-12-09T14:31:54.897Z,4.51
2023-12-09T14:34:21.481Z,4.37
2023-12-09T14:36:48.204Z,4.30
2023-12-09T14:39:14.755Z,4.42
2023-12-09T14:41:41.455Z,4.80
2023-12-09T14:44:09.222Z,4.52
2023-12-09T14:46:36.221Z,4.43
2023-12-09T14:49:02.807Z,5.07
2023-12-09T14:51:40.125Z,4.06
2023-12-09T14:54:10.327Z,4.12
2023-12-09T14:56:36.813Z,4.40
2023-12-09T14:59:03.246Z,4.21
2023-12-09T15:01:29.749Z,4.29
2023-12-09T15:03:56.458Z,4.91
2023-12-09T15:06:22.998Z,4.15
2023-12-09T15:08:49.546Z,4.09
2023-12-09T15:11:16.058Z,3.82
2023-12-09T15:13:42.499Z,3.44
2023-12-09T15:16:08.966Z,3.19
2023-12-09T15:18:35.559Z,2.73
2023-12-09T15:21:02.143Z,3.02
2023-12-09T15:23:28.722Z,2.99
2023-12-09T15:25:55.303Z,3.03
2023-12-09T15:28:21.758Z,3.12
2023-12-09T15:30:48.432Z,3.00
2023-12-09T15:33:14.999Z,3.21
2023-12-09T15:35:41.524Z,2.56
2023-12-09T15:38:08.052Z,2.36
2023-12-09T15:40:34.548Z,2.39
2023-12-09T15:43:02.310Z,2.22
2023-12-09T15:45:29.058Z,2.10
2023-12-09T15:47:55.565Z,2.14
2023-12-09T15:50:22.019Z,2.12
2023-12-09T15:52:48.698Z,2.13
2023-12-09T15:55:15.231Z,2.31
2023-12-09T15:57:41.754Z,2.28
2023-12-09T16:00:08.335Z,2.23
2023-12-09T16:02:34.876Z,2.37
2023-12-09T16:05:01.641Z,2.73
2023-12-09T16:07:28.214Z,2.54
2023-12-09T16:09:58.156Z,2.33
2023-12-09T16:12:25.178Z,2.47
2023-12-09T16:14:51.686Z,2.23
2023-12-09T16:17:18.242Z,2.56
2023-12-09T16:19:45.157Z,2.56
2023-12-09T16:22:11.709Z,2.34
2023-12-09T16:24:38.366Z,2.85
2023-12-09T16:27:04.974Z,2.10
2023-12-09T16:29:31.426Z,2.07
2023-12-09T16:31:57.899Z,2.18
2023-12-09T16:34:24.579Z,2.50
2023-12-09T16:36:51.175Z,2.34
2023-12-09T16:39:19.999Z,2.29
2023-12-09T16:41:46.502Z,2.18
2023-12-09T16:44:12.945Z,2.11
2023-12-09T16:46:39.469Z,2.13
2023-12-09T16:49:05.946Z,2.08
2023-12-09T16:51:32.849Z,1.83
2023-12-09T16:53:59.572Z,2.15
2023-12-09T16:56:26.121Z,1.77
2023-12-09T16:58:52.564Z,1.70
2023-12-09T17:01:19.247Z,1.76
2023-12-09T17:03:45.956Z,1.69
2023-12-09T17:06:12.598Z,1.56
2023-12-09T17:08:40.309Z,2.03
2023-12-09T17:11:06.744Z,1.47
2023-12-09T17:13:35.402Z,1.26
2023-12-09T17:16:01.885Z,1.56
2023-12-09T17:18:28.609Z,1.74
2023-12-09T17:20:55.280Z,1.80
2023-12-09T17:23:22.020Z,1.82
2023-12-09T17:25:48.519Z,1.95
2023-12-09T17:28:17.352Z,2.28
2023-12-09T17:30:44.150Z,1.43
2023-12-09T17:33:10.738Z,1.54
2023-12-09T17:35:37.548Z,1.26
2023-12-09T17:38:04.140Z,1.45
2023-12-09T17:40:30.724Z,1.41
2023-12-09T17:43:00.221Z,1.41
2023-12-09T17:45:26.777Z,1.21
2023-12-09T17:47:53.297Z,1.11
2023-12-09T17:50:19.802Z,1.52
2023-12-09T17:52:46.352Z,1.61
2023-12-09T17:55:12.833Z,1.36
2023-12-09T17:57:39.440Z,1.52
2023-12-09T18:00:06.174Z,1.50
2023-12-09T18:02:32.620Z,1.44
2023-12-09T18:04:59.142Z,1.31
2023-12-09T18:07:25.770Z,1.39
2023-12-09T18:09:55.663Z,1.43
2023-12-09T18:12:22.215Z,1.74
2023-12-09T18:14:48.884Z,1.63
2023-12-09T18:17:15.479Z,1.79
2023-12-09T18:19:42.113Z,1.84
2023-12-09T18:22:08.660Z,1.79
2023-12-09T18:24:35.504Z,1.60
2023-12-09T18:27:03.123Z,1.04
2023-12-09T18:29:29.561Z,0.93
2023-12-09T18:31:56.040Z,0.92
2023-12-09T18:34:22.596Z,1.01
2023-12-09T18:36:49.255Z,1.15
2023-12-09T18:39:15.783Z,1.36
2023-12-09T18:41:42.560Z,0.98
2023-12-09T18:44:09.001Z,1.11
2023-12-09T18:46:35.471Z,1.40
2023-12-09T18:49:02.097Z,1.09
2023-12-09T18:51:28.801Z,0.89
2023-12-09T18:53:55.247Z,0.82
2023-12-09T18:56:21.702Z,0.59
2023-12-09T18:58:48.430Z,0.89
2023-12-09T19:01:14.942Z,1.10
2023-12-09T19:03:41.713Z,1.47
2023-12-09T19:06:08.219Z,1.57
2023-12-09T19:08:34.796Z,1.42
2023-12-09T19:11:01.298Z,1.40
2023-12-09T19:13:27.825Z,1.13
2023-12-09T19:15:54.334Z,1.08
2023-12-09T19:18:20.884Z,1.12
2023-12-09T19:20:47.433Z,0.99
2023-12-09T19:23:13.894Z,0.97
2023-12-09T19:25:40.420Z,1.00
2023-12-09T19:28:07.002Z,1.22
2023-12-09T19:30:33.539Z,1.30
2023-12-09T19:33:00.048Z,1.09
2023-12-09T19:35:26.614Z,2.89
2023-12-09T19:37:55.712Z,1.25
2023-12-09T19:40:22.217Z,0.94
2023-12-09T19:42:48.862Z,1.19
2023-12-09T19:45:15.934Z,1.23
2023-12-09T19:47:43.657Z,1.27
2023-12-09T19:50:10.130Z,1.35
2023-12-09T19:52:36.588Z,1.39
2023-12-09T19:55:03.026Z,1.00
2023-12-09T19:57:29.669Z,1.46
2023-12-09T19:59:56.304Z,1.20
2023-12-09T20:02:22.802Z,1.36
2023-12-09T20:04:52.576Z,0.86
2023-12-09T20:07:19.261Z,0.85
2023-12-09T20:09:46.118Z,0.90
2023-12-09T20:12:12.645Z,0.80
2023-12-09T20:14:41.428Z,0.78
2023-12-09T20:17:07.933Z,0.92
2023-12-09T20:19:34.503Z,0.83
2023-12-09T20:22:01.091Z,0.76
2023-12-09T20:24:27.848Z,1.00
2023-12-09T20:26:56.409Z,0.87
2023-12-09T20:29:23.912Z,0.89
2023-12-09T20:31:50.339Z,0.88
2023-12-09T20:34:16.960Z,0.86
2023-12-09T20:36:43.592Z,1.37
2023-12-09T20:39:10.288Z,1.15
2023-12-09T20:41:36.850Z,1.10
2023-12-09T20:44:03.306Z,0.92
2023-12-09T20:46:29.817Z,0.84
2023-12-09T20:48:56.323Z,0.85
2023-12-09T20:51:22.923Z,0.88
2023-12-09T20:53:49.522Z,1.03
2023-12-09T20:56:16.327Z,1.00
2023-12-09T20:58:42.789Z,1.29
2023-12-09T21:01:12.607Z,0.93
2023-12-09T21:03:39.292Z,0.85
2023-12-09T21:06:05.923Z,1.08
2023-12-09T21:08:32.492Z,1.28
2023-12-09T21:10:59.048Z,1.08
2023-12-09T21:13:25.641Z,1.38
2023-12-09T21:15:52.104Z,1.01
2023-12-09T21:18:18.780Z,0.97
2023-12-09T21:20:45.348Z,0.81
2023-12-09T21:23:11.804Z,0.79
2023-12-09T21:25:38.244Z,0.85
2023-12-09T21:28:07.235Z,0.92
2023-12-09T21:30:34.599Z,1.02
2023-12-09T21:33:01.208Z,0.92
2023-12-09T21:35:27.751Z,0.96
2023-12-09T21:37:54.194Z,0.86
2023-12-09T21:40:20.761Z,0.96
2023-12-09T21:42:47.275Z,1.16
2023-12-09T21:45:15.568Z,1.28
2023-12-09T21:47:42.352Z,0.90
2023-12-09T21:50:09.006Z,0.93
2023-12-09T21:52:35.457Z,0.94
2023-12-09T21:55:01.886Z,0.90
2023-12-09T21:57:28.400Z,1.34
2023-12-09T21:59:55.072Z,1.00
2023-12-09T22:02:21.589Z,1.40
2023-12-09T22:04:48.094Z,0.94
2023-12-09T22:07:14.567Z,1.29
2023-12-09T22:09:41.129Z,1.16
2023-12-09T22:12:07.849Z,1.19
2023-12-09T22:14:35.326Z,1.23
2023-12-09T22:17:01.793Z,1.08
2023-12-09T22:19:28.378Z,1.32
2023-12-09T22:21:55.154Z,1.16
2023-12-09T22:24:21.629Z,1.04
2023-12-09T22:26:48.093Z,1.55
2023-12-09T22:29:14.536Z,1.03
2023-12-09T22:31:41.057Z,1.15
2023-12-09T22:34:07.628Z,1.37
2023-12-09T22:36:34.172Z,0.99
2023-12-09T22:39:00.618Z,0.77
2023-12-09T22:41:27.083Z,0.84
2023-12-09T22:43:53.653Z,0.78
2023-12-09T22:46:20.367Z,0.67
2023-12-09T22:48:46.919Z,0.54
2023-12-09T22:51:13.916Z,0.53
2023-12-09T22:53:40.479Z,0.72
2023-12-09T22:56:13.003Z,1.03
2023-12-09T22:58:40.898Z,1.10
2023-12-09T23:01:07.613Z,1.08
2023-12-09T23:03:34.242Z,1.02
2023-12-09T23:06:00.862Z,1.03
2023-12-09T23:08:31.275Z,1.11
2023-12-09T23:10:57.943Z,0.99
2023-12-09T23:13:24.441Z,0.93
2023-12-09T23:15:50.912Z,1.29
2023-12-09T23:18:17.752Z,1.89
2023-12-09T23:20:44.268Z,1.58
2023-12-09T23:23:10.880Z,1.08
2023-12-09T23:25:37.369Z,1.06
2023-12-09T23:28:03.867Z,1.79
2023-12-09T23:30:30.349Z,1.16
2023-12-09T23:32:56.933Z,0.96
2023-12-09T23:35:23.468Z,0.89
2023-12-09T23:37:49.897Z,0.89
2023-12-09T23:40:16.406Z,0.73
2023-12-09T23:42:42.950Z,1.06
2023-12-09T23:45:09.455Z,1.08
2023-12-09T23:47:36.140Z,1.04
2023-12-09T23:50:02.679Z,1.29
2023-12-09T23:52:29.437Z,1.33
2023-12-09T23:54:56.091Z,1.28
2023-12-09T23:57:22.569Z,1.28
2023-12-09T23:59:49.050Z,1.49
